createdAt,value
2022-12-14T03:49:08.386Z,-1.10
2022-12-14T03:49:55.412Z,-1.10
2022-12-14T03:50:37.789Z,-1.10
2022-12-14T03:51:21.275Z,-1.10
2022-12-14T03:52:02.858Z,-1.20
2022-12-14T03:52:40.878Z,-1.20
2022-12-14T03:53:21.352Z,-1.20
2022-12-14T03:54:07.027Z,-1.20
2022-12-14T03:54:51.329Z,-1.20
2022-12-14T03:55:31.021Z,-1.20
2022-12-14T03:56:11.127Z,-1.20
2022-12-14T03:56:53.318Z,-1.10
2022-12-14T03:57:44.307Z,-1.10
2022-12-14T03:58:34.404Z,-1.10
2022-12-14T03:59:13.268Z,-1.00
2022-12-14T03:59:54.372Z,-1.10
2022-12-14T04:00:33.689Z,-1.00
2022-12-14T04:01:14.303Z,-1.00
2022-12-14T04:01:59.898Z,-1.00
2022-12-14T04:02:41.140Z,-1.00
2022-12-14T04:03:22.546Z,-1.00
2022-12-14T04:04:02.482Z,-1.00
2022-12-14T04:04:43.155Z,-1.00
2022-12-14T04:05:23.712Z,-0.90
2022-12-14T04:06:04.486Z,-0.90
2022-12-14T04:06:46.622Z,-0.90
2022-12-14T04:07:26.396Z,-0.80
2022-12-14T04:08:09.491Z,-0.80
2022-12-14T04:08:48.314Z,-0.80
2022-12-14T04:09:34.416Z,-0.70
2022-12-14T04:10:27.016Z,-0.70
2022-12-14T04:11:23.304Z,-0.70
2022-12-14T04:12:25.155Z,-0.80
2022-12-14T04:13:24.135Z,-0.80
2022-12-14T04:14:20.887Z,-0.80
2022-12-14T04:15:19.188Z,-0.70
2022-12-14T04:16:26.101Z,-0.70
2022-12-14T04:17:21.047Z,-0.70
2022-12-14T04:18:18.401Z,-0.60
2022-12-14T04:19:00.948Z,-0.60
2022-12-14T04:19:41.138Z,-0.60
2022-12-14T04:20:21.758Z,-0.60
2022-12-14T04:20:59.686Z,-0.60
2022-12-14T04:21:39.970Z,-0.60
2022-12-14T04:22:20.402Z,-0.60
2022-12-14T04:23:02.775Z,-0.60
2022-12-14T04:24:01.730Z,-0.60
2022-12-14T04:24:59.762Z,-0.50
2022-12-14T04:26:01.494Z,-0.50
2022-12-14T04:26:42.746Z,-0.50
2022-12-14T04:27:21.116Z,-0.50
2022-12-14T04:28:00.463Z,-0.40
2022-12-14T04:28:57.559Z,-0.40
2022-12-14T04:29:52.998Z,-0.40
2022-12-14T04:30:28.549Z,-0.40
2022-12-14T04:31:08.705Z,-0.40
2022-12-14T04:31:50.884Z,-0.40
2022-12-14T04:32:30.933Z,-0.40
2022-12-14T04:33:25.069Z,-0.40
2022-12-14T04:34:06.866Z,-0.50
2022-12-14T04:34:43.157Z,-0.50
2022-12-14T04:35:23.503Z,-0.60
2022-12-14T04:36:02.680Z,-0.60
2022-12-14T04:36:45.097Z,-0.60
2022-12-14T04:37:23.406Z,-0.60
2022-12-14T04:38:01.950Z,-0.60
2022-12-14T04:38:39.374Z,-0.60
2022-12-14T04:39:19.735Z,-0.50
2022-12-14T04:39:58.306Z,-0.50
2022-12-14T04:40:34.999Z,-0.50
2022-12-14T04:41:14.955Z,-0.40
2022-12-14T04:42:15.929Z,-0.40
2022-12-14T04:42:57.595Z,-0.40
2022-12-14T04:43:44.135Z,-0.40
2022-12-14T04:44:24.788Z,-0.40
2022-12-14T04:45:03.498Z,-0.40
2022-12-14T04:45:47.858Z,-0.40
2022-12-14T04:46:26.272Z,-0.40
2022-12-14T04:47:07.539Z,-0.40
2022-12-14T04:47:53.060Z,-0.40
2022-12-14T04:48:35.690Z,-0.40
2022-12-14T04:49:14.984Z,-0.40
2022-12-14T04:49:58.247Z,-0.40
2022-12-14T04:50:43.550Z,-0.40
2022-12-14T04:51:30.933Z,-0.40
2022-12-14T04:52:14.853Z,-0.50
2022-12-14T04:52:54.526Z,-0.50
2022-12-14T04:53:36.353Z,-0.50
2022-12-14T04:54:16.406Z,-0.50
2022-12-14T04:54:58.455Z,-0.50
2022-12-14T04:55:39.885Z,-0.60
2022-12-14T04:56:20.472Z,-0.60
2022-12-14T04:57:07.367Z,-0.60
2022-12-14T04:57:47.567Z,-0.70
2022-12-14T04:58:24.605Z,-0.70
2022-12-14T04:58:58.353Z,-0.70
2022-12-14T04:59:38.759Z,-0.70
2022-12-14T05:00:14.858Z,-0.70
2022-12-14T05:01:13.897Z,-0.70
2022-12-14T05:01:59.994Z,-0.60
2022-12-14T05:02:51.296Z,-0.60
2022-12-14T05:03:34.214Z,-0.60
2022-12-14T05:04:13.552Z,-0.60
2022-12-14T05:04:58.334Z,-0.50
2022-12-14T05:05:40.520Z,-0.50
2022-12-14T05:06:26.363Z,-0.50
2022-12-14T05:07:07.685Z,-0.50
2022-12-14T05:07:51.828Z,-0.50
2022-12-14T05:08:42.468Z,-0.60
2022-12-14T05:09:25.723Z,-0.50
2022-12-14T05:10:04.786Z,-0.60
2022-12-14T05:10:46.076Z,-0.50
2022-12-14T05:12:26.174Z,-0.50
2022-12-14T05:13:06.245Z,-0.50
2022-12-14T05:13:45.125Z,-0.50
2022-12-14T05:14:31.302Z,-0.50
2022-12-14T05:15:09.441Z,-0.50
2022-12-14T05:15:46.048Z,-0.50
2022-12-14T05:16:23.603Z,-0.50
2022-12-14T05:17:08.409Z,-0.50
2022-12-14T05:17:45.757Z,-0.50
2022-12-14T05:18:21.236Z,-0.40
2022-12-14T05:18:56.461Z,-0.50
2022-12-14T05:19:33.117Z,-0.40
2022-12-14T05:20:13.828Z,-0.40
2022-12-14T05:20:49.847Z,-0.40
2022-12-14T05:21:45.893Z,-0.40
2022-12-14T05:22:21.423Z,-0.40
2022-12-14T05:22:56.937Z,-0.40
2022-12-14T05:23:31.780Z,-0.40
2022-12-14T05:24:09.512Z,-0.40
2022-12-14T05:24:44.879Z,-0.40
2022-12-14T05:25:20.823Z,-0.40
2022-12-14T05:25:54.678Z,-0.40
2022-12-14T05:26:29.415Z,-0.40
2022-12-14T05:27:07.860Z,-0.40
2022-12-14T05:27:42.902Z,-0.40
2022-12-14T05:28:16.949Z,-0.40
2022-12-14T05:28:52.908Z,-0.40
2022-12-14T05:29:28.289Z,-0.40
2022-12-14T05:30:14.084Z,-0.40
2022-12-14T05:30:49.567Z,-0.30
2022-12-14T05:31:24.024Z,-0.30
2022-12-14T05:32:01.535Z,-0.30
2022-12-14T05:32:36.353Z,-0.30
2022-12-14T05:33:20.628Z,-0.30
2022-12-14T05:33:55.445Z,-0.40
2022-12-14T05:34:32.827Z,-0.40
2022-12-14T05:35:11.255Z,-0.40
2022-12-14T05:35:46.306Z,-0.40
2022-12-14T05:36:20.713Z,-0.40
2022-12-14T05:36:56.248Z,-0.30
2022-12-14T05:37:30.123Z,-0.30
2022-12-14T05:38:06.186Z,-0.30
2022-12-14T05:38:41.815Z,-0.30
2022-12-14T05:39:18.723Z,-0.30
2022-12-14T05:39:54.825Z,-0.30
2022-12-14T05:40:30.374Z,-0.30
2022-12-14T05:41:07.393Z,-0.30
2022-12-14T05:41:41.823Z,-0.30
2022-12-14T05:42:17.430Z,-0.20
2022-12-14T05:42:55.828Z,-0.20
2022-12-14T05:43:30.704Z,-0.20
2022-12-14T05:44:06.657Z,-0.20
2022-12-14T05:44:43.653Z,-0.20
2022-12-14T05:45:20.332Z,-0.20
2022-12-14T05:46:00.413Z,-0.20
2022-12-14T05:46:35.027Z,-0.20
2022-12-14T05:47:13.027Z,-0.20
2022-12-14T05:47:48.498Z,-0.20
2022-12-14T05:48:27.626Z,-0.20
2022-12-14T05:49:04.059Z,-0.20
2022-12-14T05:49:39.104Z,-0.20
2022-12-14T05:50:18.108Z,-0.20
2022-12-14T05:50:55.765Z,-0.20
2022-12-14T05:51:30.561Z,-0.20
2022-12-14T05:52:07.223Z,-0.20
2022-12-14T05:52:42.555Z,-0.20
2022-12-14T05:53:17.388Z,-0.20
2022-12-14T05:53:54.128Z,-0.20
2022-12-14T05:54:28.547Z,-0.20
2022-12-14T05:55:05.145Z,-0.20
2022-12-14T05:55:46.933Z,-0.20
2022-12-14T05:56:25.441Z,-0.20
2022-12-14T05:57:02.890Z,-0.20
2022-12-14T05:57:40.442Z,-0.20
2022-12-14T05:58:18.862Z,-0.20
2022-12-14T05:58:55.154Z,-0.20
2022-12-14T05:59:30.065Z,-0.20
2022-12-14T06:00:04.884Z,-0.20
2022-12-14T06:00:41.017Z,-0.20
2022-12-14T06:01:19.343Z,-0.20
2022-12-14T06:01:55.748Z,-0.20
2022-12-14T06:02:33.779Z,-0.20
2022-12-14T06:03:07.193Z,-0.20
2022-12-14T06:03:43.651Z,-0.20
2022-12-14T06:04:18.297Z,-0.20
2022-12-14T06:04:56.969Z,-0.20
2022-12-14T06:05:32.261Z,-0.20
2022-12-14T06:06:10.141Z,-0.20
2022-12-14T06:06:46.465Z,-0.20
2022-12-14T06:07:26.055Z,-0.20
2022-12-14T06:08:02.071Z,-0.20
2022-12-14T06:08:39.544Z,-0.20
2022-12-14T06:09:15.926Z,-0.10
2022-12-14T06:09:51.490Z,-0.20
2022-12-14T06:10:26.362Z,-0.20
2022-12-14T06:11:06.600Z,-0.20
2022-12-14T06:11:43.317Z,-0.20
2022-12-14T06:12:17.593Z,-0.10
2022-12-14T06:12:51.914Z,-0.20
2022-12-14T06:13:29.382Z,-0.10
2022-12-14T06:14:04.634Z,-0.20
2022-12-14T06:14:40.919Z,-0.20
2022-12-14T06:15:16.217Z,-0.20
2022-12-14T06:15:51.867Z,-0.20
2022-12-14T06:16:28.986Z,-0.20
2022-12-14T06:17:03.936Z,-0.20
2022-12-14T06:17:45.693Z,-0.20
2022-12-14T06:18:20.894Z,-0.20
2022-12-14T06:18:57.889Z,-0.10
2022-12-14T06:19:32.727Z,-0.10
2022-12-14T06:20:09.730Z,-0.10
2022-12-14T06:20:45.261Z,-0.10
2022-12-14T06:21:20.851Z,-0.20
2022-12-14T06:21:56.332Z,-0.20
2022-12-14T06:22:31.310Z,-0.20
2022-12-14T06:23:07.264Z,-0.20
2022-12-14T06:23:44.326Z,-0.20
2022-12-14T06:24:19.807Z,-0.20
2022-12-14T06:24:55.637Z,-0.20
2022-12-14T06:25:30.425Z,-0.20
2022-12-14T06:26:05.904Z,-0.20
2022-12-14T06:26:42.780Z,-0.20
2022-12-14T06:27:17.681Z,-0.20
2022-12-14T06:27:56.712Z,-0.20
2022-12-14T06:28:30.679Z,-0.20
2022-12-14T06:29:05.374Z,-0.20
2022-12-14T06:29:41.150Z,-0.20
2022-12-14T06:30:18.332Z,-0.20
2022-12-14T06:30:53.323Z,-0.20
2022-12-14T06:31:31.015Z,-0.30
2022-12-14T06:32:06.610Z,-0.30
2022-12-14T06:32:43.873Z,-0.30
2022-12-14T06:33:17.680Z,-0.30
2022-12-14T06:33:53.871Z,-0.20
2022-12-14T06:34:31.914Z,-0.20
2022-12-14T06:35:11.478Z,-0.20
2022-12-14T06:35:46.262Z,-0.20
2022-12-14T06:36:24.029Z,-0.20
2022-12-14T06:36:58.927Z,-0.20
2022-12-14T06:37:33.960Z,-0.20
2022-12-14T06:38:09.202Z,-0.30
2022-12-14T06:38:44.654Z,-0.20
2022-12-14T06:39:21.794Z,-0.20
2022-12-14T06:39:57.057Z,-0.20
2022-12-14T06:40:31.821Z,-0.20
2022-12-14T06:41:10.751Z,-0.30
2022-12-14T06:41:44.868Z,-0.30
2022-12-14T06:42:20.321Z,-0.20
2022-12-14T06:42:56.677Z,-0.20
2022-12-14T06:43:32.143Z,-0.20
2022-12-14T06:44:09.433Z,-0.20
2022-12-14T06:44:45.497Z,-0.20
2022-12-14T06:45:19.793Z,-0.10
2022-12-14T06:45:54.421Z,-0.10
2022-12-14T06:46:31.248Z,-0.10
2022-12-14T06:47:06.710Z,0.00
2022-12-14T06:47:43.376Z,0.00
2022-12-14T06:48:17.689Z,0.00
2022-12-14T06:48:52.827Z,0.10
2022-12-14T06:49:28.349Z,0.10
2022-12-14T06:50:03.882Z,0.10
2022-12-14T06:50:38.738Z,0.10
2022-12-14T06:51:14.714Z,0.10
2022-12-14T06:51:48.290Z,0.20
2022-12-14T06:52:26.856Z,0.20
2022-12-14T06:53:02.743Z,0.20
2022-12-14T06:53:38.307Z,0.20
2022-12-14T06:54:16.960Z,0.20
2022-12-14T06:54:52.808Z,0.20
2022-12-14T06:55:30.180Z,0.20
2022-12-14T06:56:10.130Z,0.20
2022-12-14T06:56:48.597Z,0.20
2022-12-14T06:57:24.595Z,0.20
2022-12-14T06:58:05.035Z,0.20
2022-12-14T06:59:02.324Z,0.20
2022-12-14T06:59:37.863Z,0.20
2022-12-14T07:00:26.635Z,0.20
2022-12-14T07:01:05.893Z,0.20
2022-12-14T07:01:41.359Z,0.20
2022-12-14T07:02:19.223Z,0.30
2022-12-14T07:03:00.833Z,0.30
2022-12-14T07:03:40.465Z,0.30
2022-12-14T07:04:19.475Z,0.30
2022-12-14T07:05:03.069Z,0.30
2022-12-14T07:05:45.771Z,0.30
2022-12-14T07:06:27.243Z,0.30
2022-12-14T07:07:03.986Z,0.30
2022-12-14T07:07:38.795Z,0.20
2022-12-14T07:08:16.241Z,0.20
2022-12-14T07:08:54.085Z,0.20
2022-12-14T07:09:30.555Z,0.10
2022-12-14T07:10:07.352Z,0.10
2022-12-14T07:10:44.542Z,0.10
2022-12-14T07:11:19.940Z,0.10
2022-12-14T07:11:58.740Z,0.00
2022-12-14T07:12:36.410Z,0.00
2022-12-14T07:13:12.057Z,0.00
2022-12-14T07:13:48.720Z,0.00
2022-12-14T07:14:26.358Z,0.00
2022-12-14T07:15:00.762Z,0.00
2022-12-14T07:15:40.296Z,0.00
2022-12-14T07:16:18.100Z,0.00
2022-12-14T07:16:53.517Z,0.00
2022-12-14T07:17:28.557Z,0.00
2022-12-14T07:18:04.379Z,0.00
2022-12-14T07:18:41.185Z,0.00
2022-12-14T07:19:16.175Z,0.00
2022-12-14T07:19:52.160Z,0.00
2022-12-14T07:20:27.166Z,0.00
2022-12-14T07:21:03.660Z,0.00
2022-12-14T07:21:38.727Z,0.00
2022-12-14T07:22:17.601Z,0.00
2022-12-14T07:22:53.031Z,0.00
2022-12-14T07:23:31.249Z,0.00
2022-12-14T07:24:06.310Z,0.00
2022-12-14T07:24:45.864Z,0.00
2022-12-14T07:25:20.691Z,0.00
2022-12-14T07:26:01.901Z,0.10
2022-12-14T07:26:38.810Z,0.00
2022-12-14T07:27:13.148Z,0.10
2022-12-14T07:27:49.253Z,0.10
2022-12-14T07:28:24.274Z,0.10
2022-12-14T07:29:02.487Z,0.10
2022-12-14T07:29:36.923Z,0.10
2022-12-14T07:30:15.362Z,0.10
2022-12-14T07:30:57.652Z,0.10
2022-12-14T07:31:32.651Z,0.10
2022-12-14T07:32:08.532Z,0.10
2022-12-14T07:32:43.853Z,0.10
2022-12-14T07:33:20.581Z,0.10
2022-12-14T07:33:56.456Z,0.10
2022-12-14T07:34:34.358Z,0.10
2022-12-14T07:35:16.367Z,0.10
2022-12-14T07:35:53.350Z,0.10
2022-12-14T07:36:29.300Z,0.00
2022-12-14T07:37:05.539Z,0.10
2022-12-14T07:37:40.456Z,0.10
2022-12-14T07:38:16.432Z,0.10
2022-12-14T07:38:53.767Z,0.10
2022-12-14T07:39:30.853Z,0.10
2022-12-14T07:40:07.412Z,0.20
2022-12-14T07:40:43.533Z,0.20
2022-12-14T07:41:22.727Z,0.20
2022-12-14T07:41:58.567Z,0.20
2022-12-14T07:42:33.122Z,0.20
2022-12-14T07:43:09.716Z,0.20
2022-12-14T07:43:45.454Z,0.20
2022-12-14T07:44:25.276Z,0.20
2022-12-14T07:45:03.062Z,0.20
2022-12-14T07:45:39.344Z,0.30
2022-12-14T07:46:16.108Z,0.30
2022-12-14T07:47:16.581Z,0.30
2022-12-14T07:47:51.911Z,0.30
2022-12-14T07:48:29.283Z,0.20
2022-12-14T07:49:06.216Z,0.30
2022-12-14T07:49:41.815Z,0.30
2022-12-14T07:50:21.697Z,0.30
2022-12-14T07:50:56.716Z,0.30
2022-12-14T07:51:36.562Z,0.30
2022-12-14T07:52:11.416Z,0.30
2022-12-14T07:52:48.146Z,0.30
2022-12-14T07:53:23.709Z,0.30
2022-12-14T07:54:00.179Z,0.30
2022-12-14T07:54:35.662Z,0.40
2022-12-14T07:55:12.363Z,0.40
2022-12-14T07:55:51.586Z,0.40
2022-12-14T07:56:30.694Z,0.40
2022-12-14T07:57:07.359Z,0.50
2022-12-14T07:57:43.503Z,0.50
2022-12-14T07:58:18.386Z,0.50
2022-12-14T07:58:56.892Z,0.50
2022-12-14T07:59:32.821Z,0.50
2022-12-14T08:00:17.621Z,0.60
2022-12-14T08:00:53.135Z,0.60
2022-12-14T08:01:34.672Z,0.60
2022-12-14T08:02:14.131Z,0.70
2022-12-14T08:02:50.793Z,0.70
2022-12-14T08:03:27.797Z,0.70
2022-12-14T08:04:08.392Z,0.70
2022-12-14T08:04:41.726Z,0.70
2022-12-14T08:05:21.950Z,0.80
2022-12-14T08:05:58.973Z,0.80
2022-12-14T08:06:34.845Z,0.80
2022-12-14T08:07:09.785Z,0.80
2022-12-14T08:07:45.687Z,0.80
2022-12-14T08:08:21.224Z,0.80
2022-12-14T08:08:56.989Z,0.90
2022-12-14T08:09:32.602Z,0.90
2022-12-14T08:10:12.261Z,0.90
2022-12-14T08:10:50.149Z,0.90
2022-12-14T08:11:25.767Z,0.90
2022-12-14T08:12:01.578Z,0.90
2022-12-14T08:12:36.968Z,0.90
2022-12-14T08:13:12.662Z,0.90
2022-12-14T08:13:48.700Z,0.90
2022-12-14T08:14:23.929Z,0.90
2022-12-14T08:15:02.414Z,0.90
2022-12-14T08:15:38.773Z,0.90
2022-12-14T08:16:17.257Z,0.90
2022-12-14T08:16:53.067Z,0.90
2022-12-14T08:17:29.512Z,0.90
2022-12-14T08:18:06.316Z,0.90
2022-12-14T08:18:46.219Z,0.90
2022-12-14T08:19:24.895Z,0.90
2022-12-14T08:20:00.254Z,0.90
2022-12-14T08:20:37.242Z,1.00
2022-12-14T08:21:15.307Z,0.90
2022-12-14T08:21:50.317Z,1.00
2022-12-14T08:22:26.271Z,1.00
2022-12-14T08:23:01.750Z,1.00
2022-12-14T08:23:45.412Z,1.00
2022-12-14T08:24:22.235Z,1.00
2022-12-14T08:24:58.921Z,1.00
2022-12-14T08:25:40.997Z,1.00
2022-12-14T08:26:20.612Z,1.00
2022-12-14T08:26:57.148Z,1.00
2022-12-14T08:27:34.803Z,1.00
2022-12-14T08:28:14.606Z,1.00
2022-12-14T08:28:51.056Z,1.00
2022-12-14T08:29:25.375Z,1.00
2022-12-14T08:30:03.248Z,1.00
2022-12-14T08:30:43.065Z,1.00
2022-12-14T08:31:19.832Z,1.00
2022-12-14T08:31:56.911Z,0.90
2022-12-14T08:32:34.449Z,0.90
2022-12-14T08:33:09.639Z,0.90
2022-12-14T08:33:46.683Z,1.00
2022-12-14T08:34:23.366Z,1.00
2022-12-14T08:35:00.030Z,1.00
2022-12-14T08:35:38.187Z,1.00
2022-12-14T08:36:14.794Z,1.00
2022-12-14T08:36:49.798Z,1.00
2022-12-14T08:37:26.073Z,1.00
2022-12-14T08:38:01.571Z,1.00
2022-12-14T08:38:35.940Z,1.00
2022-12-14T08:39:13.967Z,1.00
2022-12-14T08:39:51.080Z,1.00
2022-12-14T08:40:26.297Z,1.00
2022-12-14T08:41:04.890Z,1.00
2022-12-14T08:41:40.330Z,1.10
2022-12-14T08:42:16.791Z,1.10
2022-12-14T08:42:51.556Z,1.10
2022-12-14T08:43:29.699Z,1.10
2022-12-14T08:44:07.043Z,1.10
2022-12-14T08:44:41.949Z,1.10
2022-12-14T08:45:17.678Z,1.10
2022-12-14T08:45:56.137Z,1.10
2022-12-14T08:46:36.417Z,1.10
2022-12-14T08:47:11.746Z,1.20
2022-12-14T08:47:46.777Z,1.10
2022-12-14T08:48:21.808Z,1.20
2022-12-14T08:48:59.254Z,1.20
2022-12-14T08:49:34.710Z,1.20
2022-12-14T08:50:11.801Z,1.20
2022-12-14T08:50:46.666Z,1.20
2022-12-14T08:51:26.131Z,1.30
2022-12-14T08:52:01.578Z,1.20
2022-12-14T08:52:37.751Z,1.30
2022-12-14T08:53:12.666Z,1.30
2022-12-14T08:53:48.799Z,1.20
2022-12-14T08:54:24.963Z,1.20
2022-12-14T08:54:59.736Z,1.30
2022-12-14T08:55:38.677Z,1.20
2022-12-14T08:56:14.463Z,1.30
2022-12-14T08:56:52.820Z,1.20
2022-12-14T08:57:27.515Z,1.30
2022-12-14T08:58:04.301Z,1.30
2022-12-14T08:58:40.495Z,1.30
2022-12-14T08:59:37.100Z,1.30
2022-12-14T09:00:13.177Z,1.30
2022-12-14T09:00:49.346Z,1.30
2022-12-14T09:01:33.941Z,1.30
2022-12-14T09:02:10.160Z,1.30
2022-12-14T09:02:47.051Z,1.30
2022-12-14T09:03:28.306Z,1.30
2022-12-14T09:04:05.959Z,1.30
2022-12-14T09:04:42.786Z,1.30
2022-12-14T09:05:17.718Z,1.30
2022-12-14T09:05:54.854Z,1.40
2022-12-14T09:06:39.780Z,1.40
2022-12-14T09:07:15.724Z,1.30
2022-12-14T09:07:50.040Z,1.40
2022-12-14T09:08:27.884Z,1.40
2022-12-14T09:09:02.613Z,1.40
2022-12-14T09:09:41.336Z,1.40
2022-12-14T09:10:17.136Z,1.40
2022-12-14T09:10:54.969Z,1.40
2022-12-14T09:11:31.400Z,1.40
2022-12-14T09:12:08.794Z,1.40
2022-12-14T09:12:43.137Z,1.40
2022-12-14T09:13:18.166Z,1.40
2022-12-14T09:13:56.034Z,1.40
2022-12-14T09:14:31.454Z,1.40
2022-12-14T09:15:08.615Z,1.40
2022-12-14T09:15:47.832Z,1.40
2022-12-14T09:16:24.877Z,1.40
2022-12-14T09:16:59.149Z,1.40
2022-12-14T09:17:35.133Z,1.40
2022-12-14T09:18:10.720Z,1.40
2022-12-14T09:18:47.590Z,1.40
2022-12-14T09:19:22.924Z,1.40
2022-12-14T09:19:58.717Z,1.40
2022-12-14T09:20:33.682Z,1.40
2022-12-14T09:21:09.570Z,1.40
2022-12-14T09:21:44.559Z,1.40
2022-12-14T09:22:18.866Z,1.40
2022-12-14T09:22:54.514Z,1.40
2022-12-14T09:23:31.980Z,1.40
2022-12-14T09:24:07.312Z,1.40
2022-12-14T09:24:43.455Z,1.40
2022-12-14T09:25:18.921Z,1.40
2022-12-14T09:26:05.674Z,1.40
2022-12-14T09:26:40.643Z,1.40
2022-12-14T09:27:16.634Z,1.40
2022-12-14T09:27:51.679Z,1.40
2022-12-14T09:28:28.073Z,1.40
2022-12-14T09:29:02.743Z,1.40
2022-12-14T09:29:38.961Z,1.40
2022-12-14T09:30:21.702Z,1.40
2022-12-14T09:31:01.328Z,1.40
2022-12-14T09:31:36.257Z,1.40
2022-12-14T09:32:12.176Z,1.40
2022-12-14T09:32:50.751Z,1.40
2022-12-14T09:33:25.184Z,1.40
2022-12-14T09:34:00.937Z,1.40
2022-12-14T09:34:36.460Z,1.40
2022-12-14T09:35:13.057Z,1.40
2022-12-14T09:35:47.401Z,1.40
2022-12-14T09:36:24.797Z,1.40
2022-12-14T09:36:59.714Z,1.40
2022-12-14T09:37:35.496Z,1.40
2022-12-14T09:38:11.237Z,1.40
2022-12-14T09:38:51.633Z,1.40
2022-12-14T09:39:26.867Z,1.40
2022-12-14T09:40:02.080Z,1.40
2022-12-14T09:40:40.285Z,1.40
2022-12-14T09:41:32.387Z,1.40
2022-12-14T09:42:21.863Z,1.40
2022-12-14T09:43:04.423Z,1.40
2022-12-14T09:43:43.295Z,1.40
2022-12-14T09:44:26.543Z,1.50
2022-12-14T09:45:05.188Z,1.50
2022-12-14T09:45:49.280Z,1.50
2022-12-14T09:46:36.763Z,1.60
2022-12-14T09:47:17.208Z,1.60
2022-12-14T09:47:57.585Z,1.60
2022-12-14T09:48:34.461Z,1.60
2022-12-14T09:49:19.166Z,1.60
2022-12-14T09:49:59.311Z,1.60
2022-12-14T09:50:34.089Z,1.60
2022-12-14T09:51:14.769Z,1.60
2022-12-14T09:51:50.142Z,1.60
2022-12-14T09:52:35.227Z,1.60
2022-12-14T09:53:14.700Z,1.60
2022-12-14T09:54:02.402Z,1.60
2022-12-14T09:54:39.265Z,1.60
2022-12-14T09:55:22.144Z,1.60
2022-12-14T09:55:58.483Z,1.60
2022-12-14T09:56:35.209Z,1.70
2022-12-14T09:57:15.886Z,1.70
2022-12-14T09:57:57.020Z,1.70
2022-12-14T09:58:34.532Z,1.70
2022-12-14T09:59:14.183Z,1.70
2022-12-14T09:59:49.050Z,1.70
2022-12-14T10:00:25.140Z,1.70
2022-12-14T10:01:32.937Z,1.70
2022-12-14T10:02:33.605Z,1.70
2022-12-14T10:03:35.057Z,1.70
2022-12-14T10:04:20.752Z,1.60
2022-12-14T10:05:08.377Z,1.70
2022-12-14T10:05:57.601Z,1.60
2022-12-14T10:06:38.955Z,1.60
2022-12-14T10:07:20.243Z,1.60
2022-12-14T10:08:07.562Z,1.60
2022-12-14T10:08:54.570Z,1.60
2022-12-14T10:09:41.972Z,1.60
2022-12-14T10:10:24.809Z,1.60
2022-12-14T10:11:12.223Z,1.60
2022-12-14T10:11:51.942Z,1.60
2022-12-14T10:12:38.483Z,1.60
2022-12-14T10:13:25.526Z,1.60
2022-12-14T10:14:11.568Z,1.60
2022-12-14T10:15:02.766Z,1.60
2022-12-14T10:15:46.563Z,1.60
2022-12-14T10:16:29.099Z,1.60
2022-12-14T10:17:12.181Z,1.60
2022-12-14T10:19:31.095Z,1.70
2022-12-14T10:20:19.698Z,1.70
2022-12-14T10:21:03.328Z,1.70
2022-12-14T10:21:50.908Z,1.70
2022-12-14T10:22:29.608Z,1.80
2022-12-14T10:23:04.830Z,1.80
2022-12-14T10:23:43.220Z,1.80
2022-12-14T10:24:23.766Z,1.80
2022-12-14T10:25:06.206Z,1.90
2022-12-14T10:25:41.339Z,1.90
2022-12-14T10:26:21.562Z,1.90
2022-12-14T10:26:56.368Z,1.90
2022-12-14T10:28:01.078Z,2.00
2022-12-14T10:28:47.154Z,2.00
2022-12-14T10:29:49.331Z,2.00
2022-12-14T10:30:23.758Z,2.00
2022-12-14T10:31:03.975Z,2.00
2022-12-14T10:31:45.658Z,2.00
2022-12-14T10:32:26.631Z,2.00
2022-12-14T10:33:07.415Z,2.00
2022-12-14T10:33:48.707Z,2.00
2022-12-14T10:34:31.396Z,2.00
2022-12-14T10:35:19.345Z,2.00
2022-12-14T10:35:55.303Z,2.00
2022-12-14T10:36:37.339Z,2.00
2022-12-14T10:37:46.366Z,2.10
2022-12-14T10:38:28.741Z,2.00
2022-12-14T10:39:24.699Z,2.00
2022-12-14T10:40:19.747Z,2.00
2022-12-14T10:41:08.789Z,2.10
2022-12-14T10:41:50.137Z,2.10
2022-12-14T10:42:33.438Z,2.10
2022-12-14T10:43:29.436Z,2.10
2022-12-14T10:44:17.332Z,2.20
2022-12-14T10:45:38.653Z,2.20
2022-12-14T10:46:10.106Z,2.20
2022-12-14T10:46:56.688Z,2.20
2022-12-14T10:47:37.091Z,2.20
2022-12-14T10:48:26.724Z,2.20
2022-12-14T10:49:17.252Z,2.20
2022-12-14T10:50:01.138Z,2.20
2022-12-14T10:50:57.593Z,2.20
2022-12-14T10:51:38.389Z,2.20
2022-12-14T10:52:19.444Z,2.20
2022-12-14T10:52:55.146Z,2.20
2022-12-14T10:53:40.357Z,2.20
2022-12-14T10:54:25.527Z,2.20
2022-12-14T10:55:07.723Z,2.20
2022-12-14T10:55:43.455Z,2.20
2022-12-14T10:56:22.218Z,2.20
2022-12-14T10:56:56.976Z,2.20
2022-12-14T10:57:34.027Z,2.20
2022-12-14T10:58:12.391Z,2.20
2022-12-14T10:59:17.578Z,2.20
2022-12-14T11:00:07.804Z,2.20
2022-12-14T11:00:43.858Z,2.10
2022-12-14T11:01:22.880Z,2.10
2022-12-14T11:02:02.736Z,2.10
2022-12-14T11:02:41.828Z,2.10
2022-12-14T11:03:17.617Z,2.10
2022-12-14T11:03:56.099Z,2.10
2022-12-14T11:04:34.226Z,2.10
2022-12-14T11:05:20.475Z,2.10
2022-12-14T11:06:00.882Z,2.10
2022-12-14T11:06:37.636Z,2.10
2022-12-14T11:07:13.525Z,2.10
2022-12-14T11:07:50.457Z,2.10
2022-12-14T11:08:42.050Z,2.10
2022-12-14T11:09:22.631Z,2.10
2022-12-14T11:10:16.282Z,2.10
2022-12-14T11:11:09.323Z,2.10
2022-12-14T11:11:47.462Z,2.10
2022-12-14T11:12:26.773Z,2.10
2022-12-14T11:13:04.947Z,2.10
2022-12-14T11:13:40.609Z,2.00
2022-12-14T11:14:23.482Z,2.00
2022-12-14T11:15:01.832Z,2.10
2022-12-14T11:15:39.246Z,2.00
2022-12-14T11:16:33.667Z,2.00
2022-12-14T11:17:32.536Z,2.00
2022-12-14T11:18:24.674Z,2.00
2022-12-14T11:19:02.845Z,2.00
2022-12-14T11:19:38.282Z,2.00
2022-12-14T11:20:22.894Z,2.00
2022-12-14T11:21:01.084Z,2.00
2022-12-14T11:21:39.393Z,2.00
2022-12-14T11:22:22.071Z,2.00
2022-12-14T11:22:59.755Z,2.00
2022-12-14T11:23:38.674Z,2.00
2022-12-14T11:24:25.809Z,2.00
2022-12-14T11:25:01.119Z,2.00
2022-12-14T11:25:42.362Z,2.00
2022-12-14T11:26:27.701Z,2.00
2022-12-14T11:27:06.955Z,2.00
2022-12-14T11:27:41.712Z,2.00
2022-12-14T11:28:36.069Z,2.00
2022-12-14T11:29:19.644Z,2.00
2022-12-14T11:29:56.963Z,1.90
2022-12-14T11:30:32.026Z,1.90
2022-12-14T11:31:10.612Z,1.90
2022-12-14T11:31:47.712Z,1.90
2022-12-14T11:32:26.654Z,1.90
2022-12-14T11:33:01.811Z,1.90
2022-12-14T11:33:41.880Z,1.90
2022-12-14T11:34:28.237Z,1.90
2022-12-14T11:35:04.855Z,2.00
2022-12-14T11:35:39.827Z,2.00
2022-12-14T11:36:28.463Z,2.00
2022-12-14T11:37:14.676Z,1.90
2022-12-14T11:37:51.885Z,1.90
2022-12-14T11:38:29.051Z,2.00
2022-12-14T11:39:06.843Z,1.90
2022-12-14T11:39:42.962Z,2.00
2022-12-14T11:40:25.971Z,2.00
2022-12-14T11:41:10.744Z,2.00
2022-12-14T11:41:49.761Z,2.00
2022-12-14T11:42:25.038Z,2.00
2022-12-14T11:43:06.279Z,2.00
2022-12-14T11:43:40.672Z,2.00
2022-12-14T11:44:26.986Z,2.00
2022-12-14T11:45:25.582Z,2.00
2022-12-14T11:46:01.684Z,2.00
2022-12-14T11:46:48.509Z,2.00
2022-12-14T11:47:27.025Z,2.00
2022-12-14T11:48:21.294Z,2.00
2022-12-14T11:48:56.869Z,2.00
2022-12-14T11:49:35.916Z,2.00
2022-12-14T11:50:26.272Z,1.90
2022-12-14T11:51:13.268Z,2.00
2022-12-14T11:52:01.627Z,1.90
2022-12-14T11:52:45.657Z,1.90
2022-12-14T11:53:23.220Z,1.90
2022-12-14T11:54:05.269Z,1.90
2022-12-14T11:54:41.593Z,1.90
2022-12-14T11:55:26.528Z,1.80
2022-12-14T11:56:05.416Z,1.90
2022-12-14T11:56:41.598Z,1.80
2022-12-14T11:57:25.649Z,1.80
2022-12-14T11:58:03.110Z,1.80
2022-12-14T11:58:46.947Z,1.70
2022-12-14T11:59:23.069Z,1.70
2022-12-14T12:00:01.017Z,1.70
2022-12-14T12:00:49.756Z,1.70
2022-12-14T12:01:27.639Z,1.70
2022-12-14T12:02:21.168Z,1.70
2022-12-14T12:03:08.128Z,1.70
2022-12-14T12:03:49.460Z,1.60
2022-12-14T12:04:28.837Z,1.60
2022-12-14T12:05:08.920Z,1.60
2022-12-14T12:05:59.758Z,1.60
2022-12-14T12:06:35.236Z,1.60
2022-12-14T12:07:26.292Z,1.60
2022-12-14T12:08:00.197Z,1.50
2022-12-14T12:08:38.427Z,1.50
2022-12-14T12:09:26.018Z,1.50
2022-12-14T12:10:16.801Z,1.50
2022-12-14T12:10:53.877Z,1.50
2022-12-14T12:11:31.860Z,1.50
2022-12-14T12:12:16.010Z,1.50
2022-12-14T12:12:55.358Z,1.50
2022-12-14T12:13:33.145Z,1.50
2022-12-14T12:14:23.082Z,1.50
2022-12-14T12:14:59.503Z,1.40
2022-12-14T12:15:38.913Z,1.40
2022-12-14T12:16:15.996Z,1.40
2022-12-14T12:16:53.953Z,1.40
2022-12-14T12:18:01.547Z,1.40
2022-12-14T12:18:46.323Z,1.30
2022-12-14T12:19:26.062Z,1.30
2022-12-14T12:20:03.548Z,1.20
2022-12-14T12:20:44.649Z,1.20
2022-12-14T12:21:22.620Z,1.20
2022-12-14T12:22:01.007Z,1.20
2022-12-14T12:22:40.313Z,1.20
2022-12-14T12:23:19.062Z,1.20
2022-12-14T12:24:02.035Z,1.20
2022-12-14T12:25:00.999Z,1.20
2022-12-14T12:25:38.561Z,1.20
2022-12-14T12:26:19.136Z,1.20
2022-12-14T12:26:56.826Z,1.10
2022-12-14T12:27:31.946Z,1.10
2022-12-14T12:28:17.540Z,1.10
2022-12-14T12:28:57.927Z,1.10
2022-12-14T12:29:37.726Z,1.10
2022-12-14T12:30:23.056Z,1.10
2022-12-14T12:31:10.944Z,1.10
2022-12-14T12:31:56.066Z,1.10
2022-12-14T12:32:37.131Z,1.10
2022-12-14T12:33:25.322Z,1.10
2022-12-14T12:34:06.477Z,1.00
2022-12-14T12:34:46.859Z,1.00
2022-12-14T12:35:32.242Z,1.00